Hodgen, Oklahoma
Current Conditions -  °F | °C
As of 6:55 AM on Thursday 23 Oct 2014 (Local Time) from KRKR Reporting Station
Scattered Clouds Scattered Clouds  
Wind Chill: 56°   Ceiling: Unl
Heat Index: 56°   Visibility: 10mi
Dew Point: 52°   Wind: 5mph
Humidity: 85%   Direction: 160°SSE
Pressure: 30.16"   Gusts: NA
Location:  34.84°N, 94.63°W
Report Text: KRKR 231155Z AUTO 16004KT 10SM SCT120 14/11 A3016 RMK AO2 T01350110 10150 20131
Loading
Personal Weather Stations






























Interactive Weather Map
Tropical Storm Tracking
New forecast layout! Learn more

10-Day Weather Forecast

Advertisements
Track Severe Weather on mobile